Time;durP1;ratioP1;P1;durP2;ratioP2;P2;SDS_P1;SDS_P2;PMS_P1;PMS_P2;Temp;Humidity;BMP_temperature;BMP_pressure;BME280_temperature;BME280_humidity;BME280_pressure;Samples;Min_cycle;Max_cycle;Signal;HPM_P1;HPM_P2
2022/05/20 00:00:44;;;;;;;5.00;2.80;;;;;;;20.16;58.66;101244.97;7395452;19;20014;-68
2022/05/20 00:03:12;;;;;;;16.38;4.15;;;;;;;20.11;58.97;101244.38;7395277;19;20035;-68
2022/05/20 00:05:41;;;;;;;6.10;2.90;;;;;;;20.06;58.91;101246.41;7395418;19;20418;-68
2022/05/20 00:08:10;;;;;;;3.55;2.72;;;;;;;20.02;59.63;101257.22;7395356;19;20036;-68
2022/05/20 00:10:38;;;;;;;4.57;3.00;;;;;;;19.99;59.58;101254.72;7394600;19;20028;-68
2022/05/20 00:13:10;;;;;;;4.28;2.60;;;;;;;19.94;60.58;101262.09;7392902;19;20019;-68
2022/05/20 00:15:39;;;;;;;3.40;2.38;;;;;;;19.88;60.24;101265.09;7397383;19;20022;-69
2022/05/20 00:18:07;;;;;;;4.15;2.95;;;;;;;19.85;60.22;101266.13;7395072;19;20015;-68
2022/05/20 00:20:36;;;;;;;4.28;2.70;;;;;;;19.81;60.98;101267.16;7395294;19;20558;-69
2022/05/20 00:23:04;;;;;;;4.78;2.72;;;;;;;19.77;60.63;101272.75;7396246;19;20371;-68
2022/05/20 00:28:19;;;;;;;8.25;3.03;;;;;;;19.69;61.13;101268.69;7396610;19;20007;-68
2022/05/20 00:30:48;;;;;;;6.47;2.30;;;;;;;19.65;61.21;101271.56;7394579;19;20426;-69
2022/05/20 00:33:16;;;;;;;5.13;2.53;;;;;;;19.62;61.15;101266.41;7394537;19;20018;-68
2022/05/20 00:35:45;;;;;;;3.40;2.53;;;;;;;19.58;61.36;101265.69;7395930;19;20477;-68
2022/05/20 00:38:14;;;;;;;3.28;2.42;;;;;;;19.55;61.68;101271.19;7396296;19;20042;-68
2022/05/20 00:40:42;;;;;;;4.63;1.95;;;;;;;19.52;61.60;101271.34;7394434;19;20031;-68
2022/05/20 00:43:24;;;;;;;3.80;2.17;;;;;;;19.49;61.54;101267.03;7395986;19;20035;-68
2022/05/20 00:45:52;;;;;;;2.67;1.92;;;;;;;19.45;62.03;101265.47;7395760;19;20481;-68
2022/05/20 00:48:20;;;;;;;2.80;2.28;;;;;;;19.44;61.70;101278.88;7395939;19;20026;-68
2022/05/20 00:50:53;;;;;;;4.13;2.10;;;;;;;19.42;61.61;101276.25;7394302;19;20014;-68
2022/05/20 00:53:24;;;;;;;2.80;2.10;;;;;;;19.39;61.88;101271.09;7395307;19;20419;-68
2022/05/20 00:55:52;;;;;;;4.13;1.88;;;;;;;19.39;62.04;101278.25;7396158;19;20039;-69
2022/05/20 00:58:26;;;;;;;4.13;1.65;;;;;;;19.36;62.49;101282.75;7394164;19;20039;-68
2022/05/20 01:00:57;;;;;;;3.65;1.65;;;;;;;19.34;62.09;101284.63;7394114;19;20022;-68
2022/05/20 01:03:29;;;;;;;6.97;1.70;;;;;;;19.33;61.75;101282.91;7394339;19;20022;-68
2022/05/20 01:05:58;;;;;;;3.33;1.90;;;;;;;19.32;61.96;101283.88;7396818;19;20019;-68
2022/05/20 01:08:29;;;;;;;3.80;1.90;;;;;;;19.31;61.79;101287.47;7395439;19;20018;-68
2022/05/20 01:10:57;;;;;;;2.83;1.67;;;;;;;19.29;61.87;101286.66;7394366;19;20019;-68
2022/05/20 01:13:30;;;;;;;3.88;1.63;;;;;;;19.28;62.23;101289.41;7396833;19;20023;-69
2022/05/20 01:16:02;;;;;;;4.38;1.73;;;;;;;19.26;62.25;101299.25;7398510;19;20015;-68
2022/05/20 01:18:34;;;;;;;4.25;2.28;;;;;;;19.22;62.09;101295.88;7395531;19;20052;-68
2022/05/20 01:21:04;;;;;;;2.28;1.83;;;;;;;19.19;62.55;101301.34;7393357;19;20023;-68
2022/05/20 01:23:37;;;;;;;2.28;1.58;;;;;;;19.14;63.07;101301.56;7398747;19;20031;-68
2022/05/20 01:26:07;;;;;;;1.95;1.58;;;;;;;19.14;62.55;101295.41;7400136;19;20032;-68
2022/05/20 01:28:36;;;;;;;2.10;1.80;;;;;;;19.12;62.64;101289.28;7399562;19;20041;-68
2022/05/20 01:31:09;;;;;;;5.80;2.00;;;;;;;19.09;62.83;101300.09;7399561;19;20023;-68
2022/05/20 01:33:39;;;;;;;2.90;1.60;;;;;;;19.07;62.81;101304.63;7400746;19;20022;-68
2022/05/20 01:36:10;;;;;;;3.22;2.20;;;;;;;19.03;62.66;101312.75;7399873;19;20040;-68
2022/05/20 01:38:41;;;;;;;3.90;1.85;;;;;;;18.99;63.87;101310.31;7402693;19;20040;-68
2022/05/20 01:41:12;;;;;;;2.42;1.60;;;;;;;18.96;63.29;101308.66;7399466;19;20036;-68
2022/05/20 01:43:50;;;;;;;1.90;1.38;;;;;;;18.92;63.79;101315.06;7401790;19;20383;-68
2022/05/20 01:46:27;;;;;;;2.63;1.52;;;;;;;18.82;64.48;101305.78;7402461;19;20033;-68
2022/05/20 01:49:16;;;;;;;2.22;1.60;;;;;;;18.82;64.48;101332.34;7401826;19;20018;-68
2022/05/20 01:51:51;;;;;;;4.22;1.80;;;;;;;18.73;64.12;101329.19;7399496;19;20423;-68
2022/05/20 01:54:30;;;;;;;3.83;1.73;;;;;;;18.70;64.82;101332.00;7399498;19;20031;-68
2022/05/20 01:57:06;;;;;;;2.88;2.10;;;;;;;18.64;65.44;101348.22;7401345;19;20383;-68
2022/05/20 01:59:39;;;;;;;2.15;1.65;;;;;;;18.59;64.96;101352.91;7400782;19;20022;-68
2022/05/20 02:02:11;;;;;;;2.75;1.95;;;;;;;18.54;65.24;101353.09;7401880;19;20025;-68
2022/05/20 02:04:44;;;;;;;2.30;2.10;;;;;;;18.49;65.92;101362.22;7398814;19;20023;-68
2022/05/20 02:07:18;;;;;;;3.08;2.25;;;;;;;18.40;67.01;101350.22;7401816;19;20014;-68
2022/05/20 02:09:56;;;;;;;2.67;2.17;;;;;;;18.35;68.22;101366.34;7399541;19;20115;-68
2022/05/20 02:12:28;;;;;;;2.97;2.00;;;;;;;18.31;67.18;101351.47;7401147;19;20022;-68
2022/05/20 02:15:04;;;;;;;2.90;2.10;;;;;;;18.29;68.21;101353.34;7401387;19;20035;-68
2022/05/20 02:17:36;;;;;;;3.65;2.40;;;;;;;18.25;68.34;101362.38;7401448;19;20018;-68
2022/05/20 02:20:09;;;;;;;3.88;2.80;;;;;;;18.19;68.34;101357.34;7399759;19;20481;-69
2022/05/20 02:22:40;;;;;;;6.77;2.90;;;;;;;18.12;69.90;101355.88;7402323;19;20018;-68
2022/05/20 02:25:15;;;;;;;6.45;2.97;;;;;;;18.07;70.24;101359.59;7401020;19;20014;-68
2022/05/20 02:27:48;;;;;;;2.90;2.47;;;;;;;18.04;69.19;101356.22;7398438;19;20032;-68
2022/05/20 02:30:19;;;;;;;3.10;2.60;;;;;;;18.01;69.62;101365.16;7398749;19;20022;-68
2022/05/20 02:32:52;;;;;;;4.82;3.00;;;;;;;18.00;69.42;101366.09;7397971;19;20022;-68
2022/05/20 02:35:21;;;;;;;4.53;2.88;;;;;;;17.99;69.55;101363.50;7398680;19;20018;-69
2022/05/20 02:37:49;;;;;;;6.20;3.17;;;;;;;17.98;69.78;101372.41;7399990;19;20130;-68
2022/05/20 02:40:21;;;;;;;6.25;3.90;;;;;;;17.92;71.80;101370.84;7397100;19;20477;-69
2022/05/20 02:42:49;;;;;;;5.00;4.13;;;;;;;17.89;70.86;101371.84;7398070;19;20022;-68
2022/05/20 02:45:19;;;;;;;4.38;3.53;;;;;;;17.85;71.26;101372.03;7400073;19;20010;-68
2022/05/20 02:47:47;;;;;;;4.90;3.78;;;;;;;17.82;72.44;101370.38;7397582;19;20011;-68
2022/05/20 02:50:16;;;;;;;6.15;3.92;;;;;;;17.81;71.61;101373.09;7398233;19;20031;-68
2022/05/20 02:52:44;;;;;;;4.10;3.70;;;;;;;17.76;71.34;101365.31;7399338;19;20018;-68
2022/05/20 02:55:13;;;;;;;5.85;3.58;;;;;;;17.73;72.56;101370.72;7396941;19;20495;-68
2022/05/20 02:57:44;;;;;;;4.03;3.72;;;;;;;17.71;71.68;101368.16;7399554;19;20015;-68
2022/05/20 03:05:51;;;;;;;4.78;4.38;;;;;;;17.60;72.02;101373.03;7393578;19;20007;-68
2022/05/20 03:08:20;;;;;;;7.40;4.20;;;;;;;17.58;72.48;101374.91;7398733;19;20033;-68
2022/05/20 03:10:48;;;;;;;6.05;4.70;;;;;;;17.54;72.56;101374.16;7396142;19;20513;-68
2022/05/20 03:13:20;;;;;;;5.63;4.43;;;;;;;17.50;72.57;101371.69;7398405;19;20029;-68
2022/05/20 03:15:48;;;;;;;4.72;4.07;;;;;;;17.48;73.02;101377.06;7399451;19;20014;-68
2022/05/20 03:18:16;;;;;;;4.72;3.97;;;;;;;17.43;73.02;101371.09;7398951;19;20036;-68
2022/05/20 03:20:45;;;;;;;10.13;4.40;;;;;;;17.41;73.11;101373.81;7396630;19;20026;-68
2022/05/20 03:23:14;;;;;;;5.95;4.70;;;;;;;17.37;73.14;101380.16;7396671;19;20014;-68
2022/05/20 03:25:42;;;;;;;7.50;4.18;;;;;;;17.33;73.29;101373.25;7398251;19;20367;-68
2022/05/20 03:28:10;;;;;;;6.93;4.65;;;;;;;17.31;73.72;101390.16;7398045;19;20480;-68
2022/05/20 03:30:41;;;;;;;4.95;4.55;;;;;;;17.28;74.09;101377.03;7396218;19;20022;-69
2022/05/20 03:33:09;;;;;;;4.82;4.38;;;;;;;17.25;74.07;101391.28;7398182;19;20014;-68
2022/05/20 03:35:37;;;;;;;8.55;5.03;;;;;;;17.21;74.14;101384.34;7395672;19;20426;-68
2022/05/20 03:38:05;;;;;;;6.20;5.05;;;;;;;17.17;74.60;101390.69;7395656;19;20026;-68
2022/05/20 03:40:33;;;;;;;8.18;4.45;;;;;;;17.10;74.64;101387.41;7395414;19;20035;-68
2022/05/20 03:43:08;;;;;;;9.05;4.70;;;;;;;17.12;75.18;101400.63;7397859;19;20060;-68
2022/05/20 03:45:36;;;;;;;6.18;5.07;;;;;;;17.13;75.24;101402.34;7395155;19;20022;-68
2022/05/20 03:48:07;;;;;;;5.38;4.13;;;;;;;17.13;75.22;101391.75;7393442;19;20022;-68
2022/05/20 03:50:41;;;;;;;6.95;4.40;;;;;;;17.14;74.79;101407.59;7394696;19;20019;-68
2022/05/20 03:53:09;;;;;;;5.18;4.55;;;;;;;17.16;74.94;101410.16;7397077;19;20018;-68
2022/05/20 03:55:38;;;;;;;6.03;4.78;;;;;;;17.17;75.32;101410.09;7394834;19;20520;-68
2022/05/20 03:58:06;;;;;;;5.20;4.50;;;;;;;17.19;75.33;101410.06;7397054;19;20014;-68
2022/05/20 04:01:56;;;;;;;6.63;4.63;;;;;;;17.17;75.50;101407.44;7395549;19;20515;-68
2022/05/20 04:03:25;;;;;;;5.40;4.85;;;;;;;17.17;75.48;101411.91;7396414;19;20015;-68
2022/05/20 04:05:54;;;;;;;7.95;5.00;;;;;;;17.19;75.45;101413.56;7395011;19;20038;-67
2022/05/20 04:08:22;;;;;;;5.80;5.03;;;;;;;17.23;75.39;101414.31;7396541;19;20511;-68
2022/05/20 04:10:51;;;;;;;6.05;5.18;;;;;;;17.26;75.42;101419.47;7394847;19;20006;-68
2022/05/20 04:13:21;;;;;;;7.85;5.43;;;;;;;17.30;75.06;101423.78;7396877;19;20006;-68
2022/05/20 04:15:50;;;;;;;5.85;5.25;;;;;;;17.32;75.52;101427.22;7396695;19;20037;-68
2022/05/20 04:18:18;;;;;;;5.53;4.95;;;;;;;17.36;75.02;101430.59;7396556;19;20028;-68
2022/05/20 04:20:49;;;;;;;6.18;4.47;;;;;;;17.38;75.14;101434.06;7394511;19;20022;-68
2022/05/20 04:23:20;;;;;;;6.60;4.88;;;;;;;17.41;75.02;101428.63;7396953;19;20022;-68
2022/05/20 04:25:48;;;;;;;7.57;4.95;;;;;;;17.43;74.97;101430.28;7397593;19;20073;-68
2022/05/20 04:28:17;;;;;;;5.80;5.20;;;;;;;17.48;74.74;101431.91;7394062;19;20027;-67
2022/05/20 04:30:46;;;;;;;5.85;5.00;;;;;;;17.52;74.95;101430.88;7394095;19;20034;-68
2022/05/20 04:33:14;;;;;;;9.75;6.03;;;;;;;17.56;74.89;101435.13;7395230;19;20022;-68
2022/05/20 04:35:42;;;;;;;5.63;5.10;;;;;;;17.59;74.66;101437.63;7392855;19;20381;-68
2022/05/20 04:38:13;;;;;;;6.10;5.07;;;;;;;17.64;74.69;101438.34;7394805;19;20388;-68
2022/05/20 04:40:41;;;;;;;8.18;6.05;;;;;;;17.67;74.60;101440.84;7393429;19;20019;-68
2022/05/20 04:48:30;;;;;;;5.82;5.32;;;;;;;17.75;74.31;101456.47;7395846;19;20010;-68
2022/05/20 04:50:58;;;;;;;7.53;6.43;;;;;;;17.78;74.15;101452.81;7393810;19;20031;-68
2022/05/20 04:56:10;;;;;;;9.27;6.25;;;;;;;17.78;74.66;101463.44;7394175;19;20377;-67
2022/05/20 04:58:38;;;;;;;7.97;6.10;;;;;;;17.79;74.53;101470.47;7393676;19;20014;-68
2022/05/20 05:01:07;;;;;;;7.50;5.68;;;;;;;17.81;74.48;101473.94;7392361;19;20473;-68
2022/05/20 05:03:35;;;;;;;6.32;5.78;;;;;;;17.85;74.52;101475.53;7395122;19;20018;-68
2022/05/20 05:06:03;;;;;;;5.53;5.00;;;;;;;17.87;74.08;101473.69;7392533;19;20099;-68
2022/05/20 05:08:56;;;;;;;7.82;5.68;;;;;;;17.92;74.21;101477.88;7392330;19;20015;-66
2022/05/20 05:11:39;;;;;;;9.07;6.18;;;;;;;17.97;74.26;101477.75;7392444;19;20182;-67
2022/05/20 05:14:08;;;;;;;7.20;5.80;;;;;;;18.01;73.81;101481.97;7392742;19;20032;-68
2022/05/20 05:16:37;;;;;;;9.43;7.15;;;;;;;18.03;73.83;101485.44;7392673;19;20027;-68
2022/05/20 05:19:06;;;;;;;8.93;8.02;;;;;;;18.03;73.69;101482.78;7392661;19;20018;-67
2022/05/20 05:21:34;;;;;;;10.98;7.18;;;;;;;18.03;73.39;101480.16;7392781;19;20022;-67
2022/05/20 05:24:06;;;;;;;10.90;7.13;;;;;;;18.04;73.40;101481.84;7391738;19;20035;-68
2022/05/20 05:26:37;;;;;;;10.25;8.52;;;;;;;18.05;73.61;101482.72;7394535;19;20021;-68
2022/05/20 05:29:06;;;;;;;10.63;9.07;;;;;;;18.02;73.22;101489.03;7392829;19;20036;-68
2022/05/20 05:31:34;;;;;;;10.45;9.35;;;;;;;18.02;73.35;101489.03;7393758;19;20014;-69
2022/05/20 05:34:03;;;;;;;10.68;9.57;;;;;;;18.00;73.28;101490.88;7391832;19;20031;-69
2022/05/20 05:36:31;;;;;;;11.65;10.45;;;;;;;18.01;72.96;101494.41;7393573;19;20014;-68
2022/05/20 05:38:59;;;;;;;11.50;10.30;;;;;;;17.99;72.99;101486.47;7392714;19;20502;-66
2022/05/20 05:41:30;;;;;;;14.27;11.52;;;;;;;18.02;72.96;101488.16;7390956;19;20027;-67
2022/05/20 05:44:01;;;;;;;14.02;11.30;;;;;;;18.05;72.62;101483.56;7393789;19;20022;-68
2022/05/20 05:46:29;;;;;;;11.25;10.15;;;;;;;18.10;72.55;101485.16;7394149;19;20022;-67
2022/05/20 05:48:57;;;;;;;13.40;11.55;;;;;;;18.18;72.25;101483.91;7393452;19;20486;-66
2022/05/20 05:51:25;;;;;;;12.23;11.02;;;;;;;18.26;72.01;101490.72;7392016;19;20022;-67
2022/05/20 05:53:56;;;;;;;13.50;11.63;;;;;;;18.31;71.56;101492.25;7391745;19;20026;-67
2022/05/20 05:56:24;;;;;;;14.00;12.38;;;;;;;18.34;71.01;101488.59;7391828;19;20372;-67
2022/05/20 05:58:55;;;;;;;13.18;11.05;;;;;;;18.37;71.18;101478.72;7391781;19;20019;-67
2022/05/20 06:01:23;;;;;;;11.63;10.52;;;;;;;18.46;71.05;101489.88;7392155;19;20035;-67
2022/05/20 06:03:51;;;;;;;14.48;11.95;;;;;;;18.51;70.55;101485.22;7393628;19;20027;-69
2022/05/20 06:06:20;;;;;;;12.60;11.30;;;;;;;18.59;70.25;101485.75;7391092;19;20031;-67
2022/05/20 06:08:48;;;;;;;12.52;11.25;;;;;;;18.59;69.75;101480.44;7391158;19;20040;-68
2022/05/20 06:11:17;;;;;;;13.20;11.90;;;;;;;18.61;69.55;101486.53;7396119;19;20350;-67
2022/05/20 06:13:45;;;;;;;12.10;10.95;;;;;;;18.66;69.88;101487.19;7400012;19;20391;-67
2022/05/20 06:16:21;;;;;;;13.68;11.50;;;;;;;18.67;69.29;101483.59;7397302;19;20138;-67
2022/05/20 06:18:50;;;;;;;13.23;11.68;;;;;;;18.69;69.13;101484.41;7397204;19;20504;-68
2022/05/20 06:21:19;;;;;;;13.35;11.93;;;;;;;18.71;69.21;101481.69;7400704;19;20010;-68
2022/05/20 06:23:47;;;;;;;12.70;10.63;;;;;;;18.71;69.17;101485.19;7398257;19;20015;-67
2022/05/20 06:26:15;;;;;;;12.32;11.05;;;;;;;18.74;69.15;101478.91;7399405;19;20488;-67
2022/05/20 06:28:43;;;;;;;14.43;11.57;;;;;;;18.75;68.73;101480.59;7398895;19;20022;-68
2022/05/20 06:31:11;;;;;;;12.15;10.95;;;;;;;18.80;68.15;101475.09;7399126;19;20037;-67
2022/05/20 06:33:42;;;;;;;11.60;10.50;;;;;;;18.85;68.28;101473.94;7395209;19;20475;-67
2022/05/20 06:41:32;;;;;;;14.52;11.13;;;;;;;18.88;67.31;101475.63;7399637;19;20029;-67
2022/05/20 06:44:01;;;;;;;12.35;11.10;;;;;;;18.90;67.87;101471.13;7398973;19;20386;-67
2022/05/20 06:46:29;;;;;;;13.75;12.40;;;;;;;18.92;67.52;101479.03;7399787;19;20035;-68
2022/05/20 06:49:01;;;;;;;13.40;11.68;;;;;;;18.95;67.25;101471.78;7399512;19;20031;-67
2022/05/20 06:51:31;;;;;;;14.00;12.63;;;;;;;18.95;66.94;101469.13;7400113;19;20509;-67
2022/05/20 06:54:01;;;;;;;14.68;10.80;;;;;;;18.96;67.23;101472.66;7397035;19;20018;-67
2022/05/20 06:56:31;;;;;;;10.55;9.55;;;;;;;18.99;66.68;101472.50;7399772;19;20030;-68
2022/05/20 06:59:01;;;;;;;10.88;9.30;;;;;;;19.02;65.15;101475.88;7397118;19;20035;-67
2022/05/20 07:01:29;;;;;;;12.10;10.90;;;;;;;19.07;65.20;101472.16;7397043;19;20517;-67
2022/05/20 07:04:00;;;;;;;12.32;11.32;;;;;;;19.06;64.37;101484.59;7397036;19;20027;-68
2022/05/20 07:06:36;;;;;;;10.95;9.93;;;;;;;19.10;64.67;101472.03;7398880;19;20509;-68
2022/05/20 07:09:08;;;;;;;12.35;11.15;;;;;;;19.11;64.78;101471.06;7398963;19;20018;-67
2022/05/20 07:11:36;;;;;;;10.07;9.07;;;;;;;19.13;65.09;101478.06;7397298;19;20502;-67
2022/05/20 07:14:04;;;;;;;10.85;9.40;;;;;;;19.21;64.79;101475.06;7398563;19;20018;-67
2022/05/20 07:16:32;;;;;;;10.95;9.85;;;;;;;19.29;64.84;101466.72;7395873;19;20022;-67
2022/05/20 07:19:03;;;;;;;11.65;10.00;;;;;;;19.36;64.60;101461.03;7398139;19;20018;-67
2022/05/20 07:21:32;;;;;;;11.55;10.02;;;;;;;19.44;64.11;101460.66;7397900;19;20031;-68
2022/05/20 07:24:01;;;;;;;15.20;12.75;;;;;;;19.48;63.66;101446.25;7398309;19;20014;-67
2022/05/20 07:26:29;;;;;;;11.95;10.80;;;;;;;19.48;63.66;101454.25;7397383;19;20481;-67
2022/05/20 07:28:57;;;;;;;11.70;9.35;;;;;;;19.52;63.55;101453.19;7397419;19;20018;-67
2022/05/20 07:31:25;;;;;;;10.10;9.10;;;;;;;19.56;62.97;101453.03;7397436;19;20025;-68
2022/05/20 07:33:54;;;;;;;10.75;9.65;;;;;;;19.61;62.99;101456.31;7397672;19;20018;-67
2022/05/20 07:36:25;;;;;;;10.70;9.65;;;;;;;19.65;62.53;101444.56;7395208;19;20423;-67
2022/05/20 07:38:53;;;;;;;8.27;7.55;;;;;;;19.68;61.58;101444.44;7397528;19;20035;-68
2022/05/20 07:41:23;;;;;;;8.18;7.15;;;;;;;19.76;61.44;101452.03;7397260;19;20019;-67
2022/05/20 07:43:51;;;;;;;9.32;6.50;;;;;;;19.83;60.64;101446.38;7397205;19;20026;-67
2022/05/20 07:46:19;;;;;;;7.13;6.32;;;;;;;19.86;59.81;101438.22;7397722;19;20027;-67
2022/05/20 07:48:48;;;;;;;7.00;6.28;;;;;;;19.91;60.12;101432.66;7397751;19;20019;-68
2022/05/20 07:51:18;;;;;;;7.57;6.68;;;;;;;19.98;59.90;101434.09;7395542;19;20026;-67
2022/05/20 07:53:56;;;;;;;11.30;7.13;;;;;;;20.04;59.49;101432.91;7397847;19;20026;-67
2022/05/20 07:56:27;;;;;;;9.05;6.20;;;;;;;20.13;59.73;101432.47;7395713;19;20018;-67
2022/05/20 07:59:02;;;;;;;8.38;5.55;;;;;;;20.19;58.48;101431.28;7396252;19;20496;-67
2022/05/20 08:01:33;;;;;;;7.85;5.13;;;;;;;20.25;58.39;101432.78;7396863;19;20015;-67
2022/05/20 08:06:59;;;;;;;6.68;6.00;;;;;;;20.37;58.10;101429.44;7392137;19;20074;-67
2022/05/20 08:09:30;;;;;;;7.90;5.18;;;;;;;20.40;57.41;101421.31;7393778;19;20018;-68
2022/05/20 08:11:59;;;;;;;7.35;6.13;;;;;;;20.47;56.07;101428.03;7396949;19;20019;-67
2022/05/20 08:14:28;;;;;;;9.00;6.32;;;;;;;20.53;56.21;101428.66;7395640;19;20512;-68
2022/05/20 08:16:59;;;;;;;6.00;5.40;;;;;;;20.58;55.78;101424.78;7396038;19;20010;-67
2022/05/20 08:19:27;;;;;;;7.85;5.20;;;;;;;20.63;55.29;101429.91;7396020;19;20018;-67
2022/05/20 08:21:55;;;;;;;6.78;5.70;;;;;;;20.67;55.69;101427.00;7396872;19;20022;-67
2022/05/20 08:24:32;;;;;;;7.45;5.22;;;;;;;20.71;53.57;101422.38;7395725;19;20019;-66
2022/05/20 08:27:01;;;;;;;4.85;4.38;;;;;;;20.79;54.85;101421.97;7394650;19;20010;-67
2022/05/20 08:29:29;;;;;;;5.00;4.50;;;;;;;20.82;54.57;101416.47;7394946;19;20027;-67
2022/05/20 08:31:57;;;;;;;5.18;4.43;;;;;;;20.85;54.99;101418.09;7395157;19;20015;-67
2022/05/20 08:34:25;;;;;;;5.70;5.03;;;;;;;20.91;54.80;101412.44;7394513;19;20387;-67
2022/05/20 08:36:53;;;;;;;7.25;6.03;;;;;;;20.95;54.47;101413.97;7395753;19;20032;-67
2022/05/20 08:39:22;;;;;;;7.00;5.38;;;;;;;20.96;53.58;101421.88;7396287;19;20022;-67
2022/05/20 08:41:55;;;;;;;8.82;6.07;;;;;;;20.96;54.12;101405.88;7394146;19;20014;-67
2022/05/20 08:44:25;;;;;;;9.20;5.43;;;;;;;21.03;53.97;101421.56;7394683;19;20082;-67
2022/05/20 08:47:07;;;;;;;7.78;4.60;;;;;;;21.10;54.66;101420.28;7394175;19;20018;-66
2022/05/20 08:49:35;;;;;;;6.28;5.68;;;;;;;21.19;53.91;101414.41;7394757;19;20015;-67
2022/05/20 08:52:03;;;;;;;5.97;4.60;;;;;;;21.28;53.80;101407.72;7393211;19;20485;-67
2022/05/20 08:54:31;;;;;;;6.72;4.75;;;;;;;21.40;53.70;101414.19;7393350;19;20031;-67
2022/05/20 08:57:15;;;;;;;4.82;4.35;;;;;;;21.48;52.85;101399.44;7393545;19;20027;-68
2022/05/20 08:59:44;;;;;;;8.02;5.82;;;;;;;21.57;52.86;101411.44;7394460;19;20098;-68
2022/05/20 09:02:12;;;;;;;7.18;5.25;;;;;;;21.61;52.18;101399.63;7394649;19;20019;-67
2022/05/20 09:04:40;;;;;;;5.72;4.63;;;;;;;21.66;52.38;101404.72;7395094;19;20039;-67
2022/05/20 09:07:12;;;;;;;7.63;4.70;;;;;;;21.71;51.53;101407.09;7395007;19;20031;-67
2022/05/20 09:09:47;;;;;;;4.55;4.03;;;;;;;21.74;50.87;101396.25;7393915;19;20026;-68
2022/05/20 09:12:27;;;;;;;5.70;4.72;;;;;;;21.79;51.43;101399.50;7393467;19;20015;-67
2022/05/20 09:17:46;;;;;;;4.20;3.60;;;;;;;21.86;50.24;101394.66;7394114;19;20014;-67
2022/05/20 09:20:23;;;;;;;4.47;3.30;;;;;;;21.90;49.92;101390.84;7393444;19;20025;-68
2022/05/20 09:23:05;;;;;;;4.78;2.95;;;;;;;21.96;48.75;101388.69;7393337;19;20432;-67
2022/05/20 09:25:37;;;;;;;4.35;3.95;;;;;;;22.00;48.82;101380.47;7393141;19;20023;-67
2022/05/20 09:28:29;;;;;;;4.20;3.80;;;;;;;22.00;48.70;101375.13;7395030;19;20022;-68
2022/05/20 09:31:07;;;;;;;5.15;4.28;;;;;;;22.04;49.17;101373.97;7393053;19;20018;-67
2022/05/20 09:33:39;;;;;;;4.53;4.13;;;;;;;22.09;49.38;101369.22;7393724;19;20406;-66
2022/05/20 09:36:08;;;;;;;5.50;3.58;;;;;;;22.15;48.98;101381.38;7393084;19;20350;-67
2022/05/20 09:38:40;;;;;;;6.72;3.60;;;;;;;22.13;48.13;101384.13;7393608;19;20047;-67
2022/05/20 09:41:15;;;;;;;3.88;3.55;;;;;;;22.19;48.17;101378.44;7394383;19;20032;-67
2022/05/20 09:43:47;;;;;;;7.63;3.53;;;;;;;22.25;48.17;101362.00;7393392;19;20019;-67
2022/05/20 09:46:31;;;;;;;6.32;3.25;;;;;;;22.31;47.53;101360.75;7399314;19;20018;-67
2022/05/20 09:49:06;;;;;;;3.65;3.35;;;;;;;22.30;47.28;101356.38;7401812;19;20078;-67
2022/05/20 09:51:39;;;;;;;5.25;2.80;;;;;;;22.34;47.33;101355.22;7399238;19;20019;-67
2022/05/20 09:54:17;;;;;;;3.63;3.33;;;;;;;22.36;46.55;101347.13;7398861;19;20513;-67
2022/05/20 09:56:48;;;;;;;4.53;3.17;;;;;;;22.42;47.14;101352.13;7398676;19;20043;-68
2022/05/20 09:59:34;;;;;;;4.13;3.35;;;;;;;22.48;46.86;101343.69;7400980;19;20027;-67
2022/05/20 10:02:08;;;;;;;4.78;3.22;;;;;;;22.55;47.32;101337.00;7399497;19;20018;-68
2022/05/20 10:04:47;;;;;;;3.85;3.45;;;;;;;22.60;47.18;101334.91;7398392;19;20027;-67
2022/05/20 10:07:23;;;;;;;5.03;3.60;;;;;;;22.67;47.15;101327.38;7401438;19;20006;-67
2022/05/20 10:09:59;;;;;;;3.35;3.05;;;;;;;22.71;45.91;101328.00;7399535;19;20035;-67
2022/05/20 10:12:30;;;;;;;6.35;4.03;;;;;;;22.79;46.71;101320.38;7398501;19;20027;-67
2022/05/20 10:15:07;;;;;;;4.80;3.95;;;;;;;22.85;46.67;101319.97;7398243;19;20026;-67
2022/05/20 10:17:50;;;;;;;5.50;3.70;;;;;;;22.93;45.06;101322.16;7397437;19;20373;-67
2022/05/20 10:20:24;;;;;;;4.63;3.38;;;;;;;22.98;45.50;101309.34;7398174;19;20474;-67
2022/05/20 10:23:01;;;;;;;3.45;3.15;;;;;;;23.06;44.28;101311.50;7400778;19;20018;-67
2022/05/20 10:25:36;;;;;;;4.35;3.00;;;;;;;23.11;43.18;101317.41;7398207;19;20023;-66
2022/05/20 10:32:34;;;;;;;3.00;2.70;;;;;;;23.17;43.61;101306.34;7399761;19;20367;-66
2022/05/20 10:33:58;;;;;;;3.83;3.45;;;;;;;23.30;44.22;101308.19;7399792;19;19975;-70
2022/05/20 10:36:36;;;;;;;3.88;2.63;;;;;;;23.35;43.35;101303.41;7399364;19;20039;-69
2022/05/20 10:39:12;;;;;;;6.07;3.60;;;;;;;23.37;43.22;101296.13;7397049;19;20022;-69
2022/05/20 10:41:53;;;;;;;3.55;3.08;;;;;;;23.38;43.05;101298.69;7400652;19;20090;-69
2022/05/20 10:50:21;;;;;;;5.00;3.03;;;;;;;23.51;41.83;101281.81;7398109;19;20014;-69
2022/05/20 10:53:04;;;;;;;3.88;2.67;;;;;;;23.55;41.37;101281.47;7396530;19;20485;-70
2022/05/20 10:55:45;;;;;;;4.57;3.38;;;;;;;23.63;41.85;101272.91;7396149;19;20083;-70
2022/05/20 10:58:49;;;;;;;4.20;3.78;;;;;;;23.74;42.01;101273.03;7396577;19;20023;-70
2022/05/20 11:01:27;;;;;;;3.88;2.63;;;;;;;23.85;41.13;101258.91;7394621;19;20536;-69
2022/05/20 11:04:22;;;;;;;4.95;2.40;;;;;;;23.96;39.84;101252.84;7397605;19;20014;-69
2022/05/20 11:07:22;;;;;;;4.03;3.00;;;;;;;24.05;39.56;101259.38;7395415;19;20015;-69
2022/05/20 11:10:04;;;;;;;3.58;3.00;;;;;;;24.10;40.16;101242.94;7395990;19;20039;-70
2022/05/20 11:12:51;;;;;;;5.03;3.00;;;;;;;24.16;39.85;101242.50;7393506;19;20541;-71
2022/05/20 11:15:41;;;;;;;3.40;3.10;;;;;;;24.20;40.00;101250.22;7397793;19;20123;-70
2022/05/20 11:18:28;;;;;;;3.70;3.40;;;;;;;24.20;39.76;101246.66;7397198;19;20023;-69
2022/05/20 11:21:25;;;;;;;3.75;3.20;;;;;;;24.22;40.14;101234.88;7395463;19;20022;-69
2022/05/20 11:24:26;;;;;;;3.30;3.00;;;;;;;24.29;40.34;101227.25;7395227;19;20021;-70
2022/05/20 11:27:07;;;;;;;3.00;2.80;;;;;;;24.39;40.12;101233.66;7395685;19;20026;-70
2022/05/20 11:29:59;;;;;;;4.00;3.45;;;;;;;24.51;39.77;101213.13;7396267;19;20033;-70
2022/05/20 11:32:37;;;;;;;4.38;2.70;;;;;;;24.64;39.73;101213.09;7398709;19;20015;-69
2022/05/20 11:35:18;;;;;;;3.05;2.75;;;;;;;24.72;38.76;101218.78;7397196;19;20033;-70
2022/05/20 11:38:08;;;;;;;2.92;2.60;;;;;;;24.78;38.46;101198.69;7395312;19;20015;-69
2022/05/20 11:40:55;;;;;;;2.85;2.60;;;;;;;24.89;38.43;101193.34;7394337;19;20018;-69
2022/05/20 11:43:41;;;;;;;3.00;2.50;;;;;;;25.12;37.96;101197.94;7396822;19;20019;-69
2022/05/20 11:46:24;;;;;;;4.30;2.55;;;;;;;25.25;38.12;101187.13;7396628;19;20078;-69
2022/05/20 11:49:09;;;;;;;5.95;3.00;;;;;;;25.38;37.20;101185.25;7396452;19;20074;-68
2022/05/20 11:52:12;;;;;;;2.83;2.55;;;;;;;25.55;36.56;101189.28;7396505;19;20015;-69
2022/05/20 11:54:51;;;;;;;3.50;2.50;;;;;;;25.72;36.25;101192.47;7395794;19;20019;-70
2022/05/20 11:57:24;;;;;;;2.78;2.55;;;;;;;25.85;36.89;101191.38;7395702;19;20885;-70
2022/05/20 12:00:00;;;;;;;3.35;2.63;;;;;;;26.03;36.60;101177.44;7396460;19;20026;-70
2022/05/20 12:02:30;;;;;;;5.10;2.15;;;;;;;26.25;35.70;101165.84;7397439;19;20018;-70
2022/05/20 12:05:01;;;;;;;2.70;2.45;;;;;;;26.40;35.48;101165.56;7397148;19;20438;-70
2022/05/20 12:07:30;;;;;;;2.75;2.40;;;;;;;26.50;34.83;101153.91;7392954;19;20037;-69
2022/05/20 12:10:01;;;;;;;5.43;2.90;;;;;;;26.57;35.33;101145.34;7395855;19;20026;-71
2022/05/20 12:12:31;;;;;;;2.65;2.42;;;;;;;26.72;35.57;101140.50;7394265;19;20010;-69
2022/05/20 12:15:07;;;;;;;3.30;3.00;;;;;;;26.90;35.11;101138.13;7396476;19;20023;-69
2022/05/20 12:17:37;;;;;;;3.08;2.88;;;;;;;27.10;35.06;101139.94;7394276;19;20023;-70
2022/05/20 12:26:23;;;;;;;4.25;2.40;;;;;;;27.62;33.96;101117.56;7391346;19;20007;-69
2022/05/20 12:28:52;;;;;;;3.20;2.90;;;;;;;27.78;33.88;101120.59;7394880;19;20378;-69